New Salem, PA (15468)

6:06 AM EDT on October 01, 2014 (GMT -0400)
HillTop Rices Landing | Change Station
CLOSE
Current Station
Personal Weather Station
Location: Rices Landing, PA
Elevation: 1118 ft
Nearby Weather Stations
Active Advisory: Special Statement

Elev 1118 ft 39.93 °N, 79.95 °W | Updated 4 seconds ago

Fog
Fog
55.3 °F
Feels Like 55.3 °F
N
0.0
Wind Variable Wind from WSW
Gusts 0.0 mph

Today
High -- | Low -- °F
--% Chance of Precip.
Yesterday
High -- | Low -- °F
Precip. -- in
7:15 AM 7:01 PM
Waxing Crescent, 46% visible
Pressure 29.97 in
Visibility 0.2 miles
Clouds
Dew Point 54 °F
Humidity 95%
Rainfall 0.00 in
Snow Depth Not available.
UV Not available.
Pollen 2.10 out of 12
Air Quality Not available.
Flu Activity Not available.
METAR KMGW 010953Z AUTO 00000KT 1/4SM FG VV001 13/12 A2998 RMK AO2 SLP149 T01330117 TSNO

More Conditions Fewer Conditions

Pressure 29.97 in
Visibility 0.2 miles
Clouds
Dew Point 54 °F
Humidity 95%
Rainfall 0.00 in
Snow Depth Not available.
UV Not available.
Pollen 2.10 out of 12
Air Quality Not available.
Flu Activity Not available.
METAR KMGW 010953Z AUTO 00000KT 1/4SM FG VV001 13/12 A2998 RMK AO2 SLP149 T01330117 TSNO

More Conditions Fewer Conditions

10-Day Weather Forecast

Almanac

Astronomy

Oct. 01, 2014 Rise Set
Actual Time 7:15 AM EDT 7:01 PM EDT
Civil Twilight 6:48 AM EDT 7:28 PM EDT
Nautical Twilight 6:17 AM EDT 7:59 PM EDT
Astronomical Twilight 5:45 AM EDT 8:31 PM EDT
Moon 2:14 PM EDT No Moon Set
Length of Visible Light 12h 40m
Length of Day
11h 46m
Tomorrow will be 2m 36s shorter.
Waxing Crescent, 46% of the Moon is Illuminated
Today
Waxing Crescent
Oct 1
First Quarter
Oct 8
Full
Oct 15
Last Quarter
Oct 23
New

Today's Extremes

State Highs State Lows

Community

WunderPhotos

Upload Photos

1,757,904 photos uploaded!

WunderBlogs® & News

Nearby

Snow Depth

Station Depth Elevation
No new snow has been reported.

Earthquake Activity

City Distance Mag. Time & Date
No recent earthquake activity has been reported nearby.
Minimum magnitude displayed is 2.5.

Coastal Water Temperatures

Place Temperature
No Stations Reporting

Nearby Weather Stations